createdAt,value
2023-05-22T00:00:16.743Z,12.68
2023-05-22T00:03:05.635Z,12.50
2023-05-22T00:05:39.421Z,12.36
2023-05-22T00:08:13.575Z,12.23
2023-05-22T00:10:44.072Z,12.13
2023-05-22T00:13:14.686Z,12.07
2023-05-22T00:15:43.630Z,12.05
2023-05-22T00:18:16.177Z,12.03
2023-05-22T00:20:46.783Z,11.98
2023-05-22T00:23:17.611Z,11.94
2023-05-22T00:25:46.721Z,11.94
2023-05-22T00:28:17.068Z,11.90
2023-05-22T00:30:48.460Z,11.90
2023-05-22T00:33:17.991Z,11.91
2023-05-22T00:35:51.676Z,11.90
2023-05-22T00:38:29.885Z,11.90
2023-05-22T00:41:03.241Z,11.90
2023-05-22T00:43:33.658Z,11.88
2023-05-22T00:46:03.691Z,11.89
2023-05-22T00:48:34.503Z,11.89
2023-05-22T00:51:05.759Z,11.90
2023-05-22T00:53:37.581Z,11.88
2023-05-22T00:56:09.151Z,11.88
2023-05-22T00:58:40.513Z,11.89
2023-05-22T01:01:11.686Z,11.88
2023-05-22T01:03:48.190Z,11.87
2023-05-22T01:06:21.913Z,11.82
2023-05-22T01:08:52.115Z,11.80
2023-05-22T01:11:52.047Z,11.77
2023-05-22T01:14:37.054Z,11.71
2023-05-22T01:17:23.032Z,11.67
2023-05-22T01:20:07.895Z,11.64
2023-05-22T01:22:48.653Z,11.61
2023-05-22T01:25:40.393Z,11.57
2023-05-22T01:28:09.162Z,11.55
2023-05-22T01:31:01.263Z,11.55
2023-05-22T01:33:36.452Z,11.55
2023-05-22T01:36:08.391Z,11.54
2023-05-22T01:38:37.835Z,11.53
2023-05-22T01:41:08.129Z,11.54
2023-05-22T01:43:39.203Z,11.51
2023-05-22T01:46:09.561Z,11.52
2023-05-22T01:48:40.364Z,11.54
2023-05-22T01:51:17.496Z,11.54
2023-05-22T01:53:59.724Z,11.52
2023-05-22T01:56:38.235Z,11.46
2023-05-22T01:59:11.091Z,11.47
2023-05-22T02:01:40.160Z,11.50
2023-05-22T02:04:10.306Z,11.54
2023-05-22T02:06:41.912Z,11.58
2023-05-22T02:09:11.295Z,11.63
2023-05-22T02:11:41.623Z,11.65
2023-05-22T02:14:12.615Z,11.59
2023-05-22T02:16:42.988Z,11.54
2023-05-22T02:19:11.864Z,11.47
2023-05-22T02:21:42.888Z,11.46
2023-05-22T02:24:11.876Z,11.44
2023-05-22T02:26:43.061Z,11.48
2023-05-22T02:29:14.597Z,11.51
2023-05-22T02:31:44.175Z,11.55
2023-05-22T02:34:17.780Z,11.54
2023-05-22T02:36:48.164Z,11.51
2023-05-22T02:39:20.742Z,11.43
2023-05-22T02:41:50.044Z,11.38
2023-05-22T02:44:22.021Z,11.33
2023-05-22T02:46:53.033Z,11.30
2023-05-22T02:49:23.464Z,11.34
2023-05-22T02:51:52.363Z,11.38
2023-05-22T02:54:22.518Z,11.38
2023-05-22T02:56:52.619Z,11.35
2023-05-22T02:59:22.191Z,11.33
2023-05-22T03:01:54.844Z,11.31
2023-05-22T03:04:25.391Z,11.33
2023-05-22T03:06:56.978Z,11.34
2023-05-22T03:09:27.405Z,11.35
2023-05-22T03:11:58.322Z,11.39
2023-05-22T03:14:29.570Z,11.44
2023-05-22T03:16:59.341Z,11.47
2023-05-22T03:19:29.662Z,11.50
2023-05-22T03:21:59.576Z,11.56
2023-05-22T03:24:30.049Z,11.64
2023-05-22T03:27:00.329Z,11.70
2023-05-22T03:29:36.813Z,11.76
2023-05-22T03:32:07.752Z,11.85
2023-05-22T03:34:38.460Z,11.95
2023-05-22T03:37:09.573Z,11.98
2023-05-22T03:39:40.031Z,12.05
2023-05-22T03:42:18.704Z,12.10
2023-05-22T03:44:49.720Z,12.17
2023-05-22T03:47:19.681Z,12.25
2023-05-22T03:49:50.798Z,12.33
2023-05-22T03:52:20.653Z,12.41
2023-05-22T03:54:52.374Z,12.49
2023-05-22T03:57:23.567Z,12.56
2023-05-22T03:59:52.352Z,12.63
2023-05-22T04:02:24.638Z,12.68
2023-05-22T04:04:57.176Z,12.77
2023-05-22T04:07:26.715Z,12.89
2023-05-22T04:09:58.939Z,13.03
2023-05-22T04:12:28.440Z,13.19
2023-05-22T04:14:59.263Z,13.33
2023-05-22T04:17:34.454Z,13.47
2023-05-22T04:20:05.869Z,13.60
2023-05-22T04:22:35.460Z,13.76
2023-05-22T04:25:06.808Z,13.92
2023-05-22T04:27:38.369Z,14.08
2023-05-22T04:30:10.856Z,14.23
2023-05-22T04:32:41.300Z,14.37
2023-05-22T04:35:13.900Z,14.52
2023-05-22T04:37:45.920Z,14.66
2023-05-22T04:40:15.646Z,14.82
2023-05-22T04:42:45.460Z,14.94
2023-05-22T04:45:15.935Z,15.02
2023-05-22T04:47:45.207Z,15.14
2023-05-22T04:50:16.755Z,15.23
2023-05-22T04:52:46.348Z,15.34
2023-05-22T04:55:15.905Z,15.50
2023-05-22T04:57:45.517Z,15.66
2023-05-22T05:00:17.688Z,15.83
2023-05-22T05:02:48.635Z,16.00
2023-05-22T05:05:17.693Z,16.14
2023-05-22T05:07:50.438Z,16.28
2023-05-22T05:10:20.902Z,16.48
2023-05-22T05:12:52.069Z,16.68
2023-05-22T05:15:23.203Z,16.85
2023-05-22T05:17:52.592Z,17.02
2023-05-22T05:20:21.499Z,17.18
2023-05-22T05:22:50.517Z,17.30
2023-05-22T05:25:21.057Z,17.44
2023-05-22T05:27:51.771Z,17.59
2023-05-22T05:30:21.737Z,17.69
2023-05-22T05:33:22.837Z,17.86
2023-05-22T05:36:18.187Z,17.99
2023-05-22T05:38:49.114Z,18.08
2023-05-22T05:41:20.665Z,18.17
2023-05-22T05:43:57.733Z,18.31
2023-05-22T05:46:28.404Z,18.51
2023-05-22T05:48:58.130Z,18.68
2023-05-22T05:51:28.101Z,18.84
2023-05-22T05:53:57.703Z,19.00
2023-05-22T05:56:29.171Z,19.20
2023-05-22T05:58:58.380Z,19.41
2023-05-22T06:01:47.797Z,19.68
2023-05-22T06:04:22.668Z,19.84
2023-05-22T06:06:53.539Z,19.99
2023-05-22T06:09:30.346Z,20.18
2023-05-22T06:12:25.780Z,20.51
2023-05-22T06:14:59.075Z,20.63
2023-05-22T06:17:28.300Z,20.75
2023-05-22T06:20:00.185Z,21.03
2023-05-22T06:22:30.161Z,21.33
2023-05-22T06:25:00.780Z,21.52
2023-05-22T06:27:30.338Z,21.63
2023-05-22T06:30:00.787Z,21.73
2023-05-22T06:32:33.379Z,21.87
2023-05-22T06:35:06.285Z,22.01
2023-05-22T06:37:36.208Z,22.17
2023-05-22T06:40:07.691Z,22.42
2023-05-22T06:42:58.687Z,22.65
2023-05-22T06:45:37.927Z,22.85
2023-05-22T06:48:24.170Z,23.04
2023-05-22T06:51:23.060Z,23.20
2023-05-22T06:53:53.946Z,23.41
2023-05-22T06:56:26.987Z,23.65
2023-05-22T06:58:59.882Z,23.83
2023-05-22T07:01:43.717Z,23.99
2023-05-22T07:04:16.072Z,24.05
2023-05-22T07:07:05.648Z,24.19
2023-05-22T07:09:35.546Z,24.28
2023-05-22T07:12:06.326Z,24.36
2023-05-22T07:14:36.160Z,24.47
2023-05-22T07:17:08.445Z,24.53
2023-05-22T07:19:42.315Z,24.67
2023-05-22T07:22:11.513Z,24.74
2023-05-22T07:24:41.497Z,24.82
2023-05-22T07:27:11.851Z,24.95
2023-05-22T07:29:44.504Z,25.08
2023-05-22T07:32:15.283Z,25.22
2023-05-22T07:34:48.689Z,25.78
2023-05-22T07:37:19.347Z,26.55
2023-05-22T07:39:50.106Z,27.13
2023-05-22T07:42:19.811Z,27.84
2023-05-22T07:44:51.992Z,28.66
2023-05-22T07:47:22.349Z,29.35
2023-05-22T07:49:52.739Z,29.75
2023-05-22T07:52:24.177Z,30.28
2023-05-22T07:54:55.158Z,30.56
2023-05-22T07:57:28.738Z,30.71
2023-05-22T08:00:02.187Z,30.85
2023-05-22T08:02:42.492Z,30.89
2023-05-22T08:05:12.349Z,30.89
2023-05-22T08:07:42.498Z,30.85
2023-05-22T08:10:16.346Z,30.86
2023-05-22T08:12:46.409Z,31.32
2023-05-22T08:15:16.128Z,32.05
2023-05-22T08:17:45.569Z,32.66
2023-05-22T08:20:16.471Z,33.35
2023-05-22T08:22:46.377Z,33.96
2023-05-22T08:25:16.829Z,34.41
2023-05-22T08:27:47.138Z,34.75
2023-05-22T08:30:16.551Z,34.63
2023-05-22T08:32:46.159Z,34.53
2023-05-22T08:35:17.130Z,34.61
2023-05-22T08:37:47.116Z,34.99
2023-05-22T08:40:17.700Z,35.36
2023-05-22T08:42:47.487Z,35.35
2023-05-22T08:45:17.767Z,34.25
2023-05-22T08:47:51.724Z,33.31
2023-05-22T08:50:22.194Z,33.39
2023-05-22T08:52:53.052Z,32.01
2023-05-22T08:55:21.874Z,30.68
2023-05-22T08:57:52.261Z,29.93
2023-05-22T09:00:22.116Z,29.42
2023-05-22T09:02:51.416Z,29.00
2023-05-22T09:05:21.869Z,28.79
2023-05-22T09:07:50.716Z,28.57
2023-05-22T09:10:23.258Z,28.75
2023-05-22T09:13:04.975Z,28.95
2023-05-22T09:15:34.754Z,29.13
2023-05-22T09:18:04.499Z,29.72
2023-05-22T09:20:39.321Z,30.15
2023-05-22T09:23:15.934Z,30.39
2023-05-22T09:25:46.907Z,30.72
2023-05-22T09:28:16.630Z,30.82
2023-05-22T09:30:49.970Z,30.51
2023-05-22T09:33:20.315Z,30.27
2023-05-22T09:35:55.674Z,30.37
2023-05-22T09:38:30.044Z,30.67
2023-05-22T09:40:58.978Z,30.82
2023-05-22T09:43:30.386Z,31.01
2023-05-22T09:46:05.222Z,30.90
2023-05-22T09:48:38.682Z,30.78
2023-05-22T09:51:08.818Z,31.23
2023-05-22T09:53:40.914Z,31.31
2023-05-22T09:56:14.691Z,30.95
2023-05-22T09:58:44.227Z,30.57
2023-05-22T10:01:15.953Z,30.87
2023-05-22T10:03:49.651Z,31.23
2023-05-22T10:06:19.368Z,31.30
2023-05-22T10:08:51.271Z,31.24
2023-05-22T10:11:20.233Z,30.99
2023-05-22T10:13:50.590Z,30.98
2023-05-22T10:16:20.710Z,31.04
2023-05-22T10:18:50.453Z,30.87
2023-05-22T10:21:21.806Z,30.74
2023-05-22T10:23:52.491Z,30.69
2023-05-22T10:26:22.024Z,30.94
2023-05-22T10:29:00.421Z,31.07
2023-05-22T10:31:42.738Z,31.35
2023-05-22T10:34:38.727Z,31.52
2023-05-22T10:37:17.298Z,31.58
2023-05-22T10:39:49.753Z,31.94
2023-05-22T10:42:18.843Z,32.48
2023-05-22T10:44:49.046Z,33.02
2023-05-22T10:47:18.057Z,33.43
2023-05-22T10:49:47.448Z,33.75
2023-05-22T10:52:22.230Z,33.94
2023-05-22T10:54:54.916Z,33.75
2023-05-22T10:57:25.323Z,33.15
2023-05-22T11:00:07.805Z,32.56
2023-05-22T11:02:41.284Z,32.24
2023-05-22T11:05:22.928Z,32.21
2023-05-22T11:07:52.880Z,32.42
2023-05-22T11:10:46.460Z,32.64
2023-05-22T11:13:19.163Z,32.61
2023-05-22T11:15:49.391Z,32.32
2023-05-22T11:18:18.117Z,32.18
2023-05-22T11:20:47.430Z,32.24
2023-05-22T11:23:18.629Z,32.42
2023-05-22T11:25:47.387Z,32.75
2023-05-22T11:28:17.873Z,32.91
2023-05-22T11:30:47.190Z,33.14
2023-05-22T11:33:16.099Z,33.04
2023-05-22T11:35:48.093Z,32.56
2023-05-22T11:38:18.459Z,31.98
2023-05-22T11:40:51.936Z,31.43
2023-05-22T11:43:30.460Z,30.93
2023-05-22T11:46:18.063Z,30.33
2023-05-22T11:48:48.264Z,29.89
2023-05-22T11:51:19.840Z,29.44
2023-05-22T11:53:51.263Z,28.98
2023-05-22T11:56:23.497Z,28.58
2023-05-22T11:58:53.571Z,28.15
2023-05-22T12:01:23.827Z,27.75
2023-05-22T12:03:52.888Z,27.08
2023-05-22T12:06:24.011Z,27.01
2023-05-22T12:08:56.504Z,27.28
2023-05-22T12:11:26.841Z,27.27
2023-05-22T12:14:03.444Z,27.17
2023-05-22T12:16:44.943Z,27.13
2023-05-22T12:19:15.823Z,27.00
2023-05-22T12:21:46.332Z,26.89
2023-05-22T12:24:15.384Z,27.11
2023-05-22T12:26:50.111Z,27.59
2023-05-22T12:29:27.568Z,27.95
2023-05-22T12:32:01.943Z,28.22
2023-05-22T12:34:35.943Z,28.52
2023-05-22T12:37:05.535Z,28.73
2023-05-22T12:39:35.431Z,28.85
2023-05-22T12:42:04.412Z,28.82
2023-05-22T12:44:36.321Z,28.50
2023-05-22T12:47:07.546Z,28.13
2023-05-22T12:49:38.406Z,27.82
2023-05-22T12:52:09.512Z,27.83
2023-05-22T12:54:39.760Z,28.16
2023-05-22T12:57:11.773Z,28.47
2023-05-22T12:59:40.987Z,28.76
2023-05-22T13:02:10.613Z,28.60
2023-05-22T13:04:39.757Z,28.37
2023-05-22T13:07:08.983Z,28.18
2023-05-22T13:09:38.231Z,27.93
2023-05-22T13:12:07.289Z,27.82
2023-05-22T13:14:39.239Z,28.00
2023-05-22T13:17:08.401Z,28.45
2023-05-22T13:19:38.699Z,28.79
2023-05-22T13:22:09.278Z,29.22
2023-05-22T13:24:39.537Z,29.66
2023-05-22T13:27:09.658Z,29.94
2023-05-22T13:29:38.823Z,29.84
2023-05-22T13:32:07.909Z,29.38
2023-05-22T13:34:38.336Z,28.87
2023-05-22T13:37:09.042Z,28.57
2023-05-22T13:39:38.178Z,28.15
2023-05-22T13:42:07.266Z,27.69
2023-05-22T13:44:36.055Z,27.28
2023-05-22T13:47:05.739Z,26.99
2023-05-22T13:49:42.280Z,26.94
2023-05-22T13:52:12.268Z,26.95
2023-05-22T13:54:42.665Z,27.01
2023-05-22T13:57:13.030Z,26.98
2023-05-22T13:59:43.865Z,26.94
2023-05-22T14:02:14.416Z,27.14
2023-05-22T14:04:44.371Z,27.45
2023-05-22T14:07:15.225Z,27.95
2023-05-22T14:09:44.740Z,28.41
2023-05-22T14:12:14.189Z,28.59
2023-05-22T14:14:42.951Z,28.88
2023-05-22T14:17:11.810Z,29.30
2023-05-22T14:19:42.126Z,29.63
2023-05-22T14:22:13.689Z,30.05
2023-05-22T14:24:43.335Z,30.14
2023-05-22T14:27:11.982Z,29.81
2023-05-22T14:29:40.800Z,29.54
2023-05-22T14:32:09.789Z,29.43
2023-05-22T14:34:39.798Z,29.50
2023-05-22T14:37:09.084Z,29.48
2023-05-22T14:39:37.760Z,29.16
2023-05-22T14:42:07.472Z,28.98
2023-05-22T14:44:36.397Z,28.69
2023-05-22T14:47:05.118Z,28.34
2023-05-22T14:49:35.685Z,28.09
2023-05-22T14:52:06.278Z,27.67
2023-05-22T14:54:36.970Z,27.38
2023-05-22T14:57:06.575Z,27.21
2023-05-22T14:59:37.101Z,27.00
2023-05-22T15:02:06.149Z,26.83
2023-05-22T15:04:36.881Z,26.67
2023-05-22T15:07:06.102Z,26.55
2023-05-22T15:09:36.307Z,26.44
2023-05-22T15:12:06.358Z,26.33
2023-05-22T15:14:35.123Z,26.26
2023-05-22T15:17:04.590Z,26.21
2023-05-22T15:19:34.908Z,26.13
2023-05-22T15:22:18.421Z,26.14
2023-05-22T15:24:48.589Z,26.11
2023-05-22T15:27:17.941Z,26.15
2023-05-22T15:29:48.107Z,26.30
2023-05-22T15:32:17.011Z,26.37
2023-05-22T15:34:46.384Z,26.53
2023-05-22T15:37:16.060Z,26.65
2023-05-22T15:39:45.149Z,26.62
2023-05-22T15:42:15.548Z,26.58
2023-05-22T15:44:46.307Z,26.47
2023-05-22T15:47:15.887Z,26.35
2023-05-22T15:49:44.724Z,26.19
2023-05-22T15:52:13.925Z,26.13
2023-05-22T15:54:44.346Z,26.10
2023-05-22T15:57:15.462Z,26.10
2023-05-22T15:59:47.414Z,25.95
2023-05-22T16:02:17.092Z,25.86
2023-05-22T16:04:46.536Z,25.88
2023-05-22T16:07:15.845Z,25.92
2023-05-22T16:09:45.828Z,25.93
2023-05-22T16:12:14.660Z,25.95
2023-05-22T16:14:44.949Z,25.87
2023-05-22T16:17:14.109Z,25.81
2023-05-22T16:19:43.665Z,25.82
2023-05-22T16:22:12.631Z,25.82
2023-05-22T16:24:41.757Z,25.76
2023-05-22T16:27:12.044Z,25.74
2023-05-22T16:29:41.531Z,25.72
2023-05-22T16:32:11.042Z,25.63
2023-05-22T16:34:41.751Z,25.68
2023-05-22T16:37:11.287Z,25.73
2023-05-22T16:39:41.699Z,25.74
2023-05-22T16:42:10.514Z,25.88
2023-05-22T16:44:39.593Z,25.95
2023-05-22T16:47:11.784Z,25.89
2023-05-22T16:49:41.592Z,25.74
2023-05-22T16:52:12.886Z,25.57
2023-05-22T16:54:43.062Z,25.42
2023-05-22T16:57:11.944Z,25.31
2023-05-22T16:59:41.696Z,25.13
2023-05-22T17:02:12.034Z,25.04
2023-05-22T17:04:41.339Z,24.93
2023-05-22T17:07:10.327Z,24.75
2023-05-22T17:09:45.842Z,24.60
2023-05-22T17:12:15.489Z,24.42
2023-05-22T17:14:46.909Z,24.29
2023-05-22T17:17:17.249Z,24.16
2023-05-22T17:19:47.019Z,24.06
2023-05-22T17:22:16.867Z,23.95
2023-05-22T17:24:47.403Z,23.87
2023-05-22T17:27:28.076Z,23.78
2023-05-22T17:30:05.351Z,23.69
2023-05-22T17:32:34.964Z,23.62
2023-05-22T17:35:07.105Z,23.55
2023-05-22T17:37:36.302Z,23.53
2023-05-22T17:40:05.743Z,23.46
2023-05-22T17:42:34.675Z,23.37
2023-05-22T17:45:04.347Z,23.30
2023-05-22T17:47:33.395Z,23.23
2023-05-22T17:50:03.196Z,23.12
2023-05-22T17:52:34.162Z,23.02
2023-05-22T17:55:03.420Z,22.90
2023-05-22T17:57:32.512Z,22.81
2023-05-22T18:00:02.541Z,22.69
2023-05-22T18:02:41.206Z,22.57
2023-05-22T18:05:11.268Z,22.46
2023-05-22T18:07:40.815Z,22.38
2023-05-22T18:10:11.319Z,22.33
2023-05-22T18:12:40.678Z,22.22
2023-05-22T18:15:11.440Z,22.12
2023-05-22T18:17:41.960Z,22.05
2023-05-22T18:20:14.664Z,22.00
2023-05-22T18:22:43.826Z,21.94
2023-05-22T18:25:12.927Z,21.83
2023-05-22T18:27:42.734Z,21.67
2023-05-22T18:30:12.025Z,21.41
2023-05-22T18:32:40.920Z,21.09
2023-05-22T18:35:10.028Z,20.79
2023-05-22T18:37:39.233Z,20.55
2023-05-22T18:40:09.783Z,20.32
2023-05-22T18:42:39.340Z,20.06
2023-05-22T18:45:08.464Z,19.84
2023-05-22T18:47:39.948Z,19.64
2023-05-22T18:50:10.007Z,19.41
2023-05-22T18:52:40.408Z,19.21
2023-05-22T18:55:10.390Z,19.05
2023-05-22T18:57:39.811Z,18.93
2023-05-22T19:00:10.787Z,18.79
2023-05-22T19:02:39.851Z,18.67
2023-05-22T19:05:09.200Z,18.55
2023-05-22T19:07:38.809Z,18.41
2023-05-22T19:10:10.097Z,18.24
2023-05-22T19:12:39.570Z,18.06
2023-05-22T19:15:09.291Z,17.87
2023-05-22T19:17:39.485Z,17.68
2023-05-22T19:20:09.343Z,17.51
2023-05-22T19:22:39.261Z,17.34
2023-05-22T19:25:10.986Z,17.21
2023-05-22T19:27:41.218Z,17.10
2023-05-22T19:30:11.770Z,17.03
2023-05-22T19:32:42.643Z,17.00
2023-05-22T19:35:15.818Z,16.93
2023-05-22T19:37:44.852Z,16.81
2023-05-22T19:40:14.502Z,16.77
2023-05-22T19:42:43.314Z,16.65
2023-05-22T19:45:12.399Z,16.62
2023-05-22T19:47:42.168Z,16.63
2023-05-22T19:50:12.688Z,16.63
2023-05-22T19:52:42.879Z,16.59
2023-05-22T19:55:11.978Z,16.50
2023-05-22T19:57:44.741Z,16.35
2023-05-22T20:00:16.443Z,16.26
2023-05-22T20:02:45.433Z,16.22
2023-05-22T20:05:16.033Z,16.18
2023-05-22T20:07:45.153Z,16.11
2023-05-22T20:10:14.200Z,16.04
2023-05-22T20:12:43.241Z,15.89
2023-05-22T20:15:15.310Z,15.74
2023-05-22T20:17:49.483Z,15.58
2023-05-22T20:20:19.622Z,15.45
2023-05-22T20:22:50.739Z,15.37
2023-05-22T20:25:23.541Z,15.31
2023-05-22T20:27:52.873Z,15.22
2023-05-22T20:30:22.946Z,15.14
2023-05-22T20:32:52.316Z,15.09
2023-05-22T20:35:22.464Z,15.08
2023-05-22T20:37:53.694Z,15.04
2023-05-22T20:40:26.835Z,15.01
2023-05-22T20:42:57.430Z,15.00
2023-05-22T20:45:32.577Z,14.96
2023-05-22T20:48:01.766Z,14.94
2023-05-22T20:50:33.045Z,14.86
2023-05-22T20:53:02.034Z,14.78
2023-05-22T20:55:31.209Z,14.77
2023-05-22T20:58:00.166Z,14.70
2023-05-22T21:00:30.314Z,14.66
2023-05-22T21:03:01.545Z,14.65
2023-05-22T21:05:30.574Z,14.61
2023-05-22T21:07:59.477Z,14.62
2023-05-22T21:10:29.404Z,14.64
2023-05-22T21:12:59.327Z,14.67
2023-05-22T21:15:29.773Z,14.69
2023-05-22T21:17:58.732Z,14.65
2023-05-22T21:20:27.948Z,14.60
2023-05-22T21:22:58.225Z,14.53
2023-05-22T21:25:27.593Z,14.42
2023-05-22T21:27:56.442Z,14.33
2023-05-22T21:30:25.140Z,14.17
2023-05-22T21:32:54.848Z,14.01
2023-05-22T21:35:23.955Z,13.95
2023-05-22T21:37:53.224Z,13.93
2023-05-22T21:40:22.554Z,13.92
2023-05-22T21:42:51.273Z,13.90
2023-05-22T21:45:20.066Z,13.94
2023-05-22T21:47:49.020Z,13.97
2023-05-22T21:50:19.303Z,14.01
2023-05-22T21:52:48.064Z,14.08
2023-05-22T21:55:19.031Z,14.13
2023-05-22T21:57:48.144Z,14.16
2023-05-22T22:00:19.504Z,14.18
2023-05-22T22:02:48.343Z,14.21
2023-05-22T22:05:21.969Z,14.27
2023-05-22T22:07:50.933Z,14.29
2023-05-22T22:10:21.100Z,14.29
2023-05-22T22:12:51.224Z,14.31
2023-05-22T22:15:22.145Z,14.37
2023-05-22T22:17:52.691Z,14.43
2023-05-22T22:20:42.693Z,14.49
2023-05-22T22:23:11.475Z,14.56
2023-05-22T22:25:40.809Z,14.61
2023-05-22T22:28:09.723Z,14.64
2023-05-22T22:30:40.159Z,14.66
2023-05-22T22:33:12.184Z,14.68
2023-05-22T22:35:44.123Z,14.69
2023-05-22T22:38:14.554Z,14.69
2023-05-22T22:40:45.264Z,14.68
2023-05-22T22:43:13.928Z,14.68
2023-05-22T22:45:43.852Z,14.67
2023-05-22T22:48:12.717Z,14.66
2023-05-22T22:50:43.129Z,14.61
2023-05-22T22:53:11.866Z,14.53
2023-05-22T22:55:41.072Z,14.46
2023-05-22T22:58:11.561Z,14.43
2023-05-22T23:00:40.658Z,14.44
2023-05-22T23:03:11.907Z,14.45
2023-05-22T23:05:41.829Z,14.46
2023-05-22T23:08:11.441Z,14.45
2023-05-22T23:10:40.230Z,14.40
2023-05-22T23:13:08.985Z,14.35
2023-05-22T23:15:39.813Z,14.27
2023-05-22T23:18:09.143Z,14.19
2023-05-22T23:20:37.948Z,14.12
2023-05-22T23:23:07.005Z,14.03
2023-05-22T23:25:36.039Z,13.96
2023-05-22T23:28:06.028Z,13.86
2023-05-22T23:30:35.282Z,13.77
2023-05-22T23:33:06.488Z,13.70
2023-05-22T23:35:36.973Z,13.66
2023-05-22T23:38:05.901Z,13.58
2023-05-22T23:40:34.834Z,13.51
2023-05-22T23:43:04.774Z,13.48
2023-05-22T23:45:33.556Z,13.44
2023-05-22T23:48:03.783Z,13.40
2023-05-22T23:50:32.684Z,13.33
2023-05-22T23:53:01.865Z,13.24
2023-05-22T23:55:32.081Z,13.20
2023-05-22T23:58:02.293Z,13.16
